Time;durP1;ratioP1;P1;durP2;ratioP2;P2;SDS_P1;SDS_P2;PMS_P1;PMS_P2;Temp;Humidity;BMP_temperature;BMP_pressure;BME280_temperature;BME280_humidity;BME280_pressure;Samples;Min_cycle;Max_cycle;Signal;HPM_P1;HPM_P2
2021/08/19 00:02:43;;;;;;;5.32;2.47;;;21.60;91.50;;;;;;5050104;28;20108;-67
2021/08/19 00:05:47;;;;;;;4.10;2.35;;;21.60;91.50;;;;;;5049887;28;20035;-66
2021/08/19 00:08:51;;;;;;;4.63;2.35;;;21.60;91.60;;;;;;5050404;28;20052;-67
2021/08/19 00:11:56;;;;;;;3.20;2.35;;;21.50;91.60;;;;;;5049428;28;20057;-67
2021/08/19 00:15:00;;;;;;;8.30;2.88;;;21.30;91.80;;;;;;5050007;28;20048;-67
2021/08/19 00:18:04;;;;;;;6.35;4.55;;;21.30;91.90;;;;;;5049992;28;20538;-67
2021/08/19 00:21:10;;;;;;;5.90;4.65;;;21.20;91.90;;;;;;5049876;28;20051;-67
2021/08/19 00:24:14;;;;;;;5.60;4.35;;;21.20;92.00;;;;;;5048984;28;20048;-67
2021/08/19 00:27:18;;;;;;;5.18;2.90;;;21.20;91.80;;;;;;5049567;28;20053;-67
2021/08/19 00:30:22;;;;;;;9.00;2.85;;;21.20;91.50;;;;;;5049703;28;20035;-67
2021/08/19 00:33:26;;;;;;;7.47;2.30;;;21.10;91.20;;;;;;5049755;28;20056;-67
2021/08/19 00:36:30;;;;;;;5.13;2.20;;;21.10;91.00;;;;;;5049537;28;20052;-66
2021/08/19 00:39:37;;;;;;;7.63;2.22;;;21.00;90.80;;;;;;5048990;28;20044;-67
2021/08/19 00:42:42;;;;;;;5.10;2.20;;;21.10;90.70;;;;;;5050632;28;20047;-67
2021/08/19 00:45:46;;;;;;;4.05;2.22;;;21.00;90.80;;;;;;5053338;28;20040;-66
2021/08/19 00:48:53;;;;;;;3.88;2.20;;;21.00;90.90;;;;;;5053411;28;20044;-67
2021/08/19 00:51:58;;;;;;;6.63;2.80;;;21.00;90.90;;;;;;5053521;28;20040;-67
2021/08/19 00:55:03;;;;;;;5.25;2.60;;;21.00;91.10;;;;;;5053549;28;20855;-66
2021/08/19 00:58:07;;;;;;;4.72;2.30;;;20.90;91.30;;;;;;5053268;28;20391;-67
2021/08/19 01:01:12;;;;;;;4.28;2.35;;;20.90;91.70;;;;;;5053271;28;20052;-66
2021/08/19 01:04:17;;;;;;;3.42;2.15;;;20.90;91.80;;;;;;5053392;28;20051;-67
2021/08/19 01:07:21;;;;;;;6.53;2.05;;;20.90;92.10;;;;;;5053344;28;20064;-67
2021/08/19 01:10:28;;;;;;;5.30;2.25;;;20.80;92.20;;;;;;5053099;28;20040;-67
2021/08/19 01:13:35;;;;;;;9.50;4.22;;;20.80;92.40;;;;;;5053227;28;20059;-67
2021/08/19 01:16:40;;;;;;;8.88;4.15;;;20.70;92.70;;;;;;5053294;28;20051;-67
2021/08/19 01:19:51;;;;;;;5.97;3.92;;;20.70;92.70;;;;;;5052696;28;20393;-67
2021/08/19 01:22:56;;;;;;;7.38;3.50;;;20.70;92.90;;;;;;5053172;28;20048;-67
2021/08/19 01:26:07;;;;;;;5.95;2.63;;;20.60;92.80;;;;;;5053276;28;20052;-67
2021/08/19 01:29:11;;;;;;;3.75;2.60;;;20.60;92.80;;;;;;5052764;28;20040;-67
2021/08/19 01:32:16;;;;;;;3.78;2.50;;;20.60;92.80;;;;;;5053045;28;20044;-67
2021/08/19 01:35:26;;;;;;;4.25;2.40;;;20.60;92.60;;;;;;5052932;28;20064;-66
2021/08/19 01:38:32;;;;;;;3.30;2.45;;;20.60;92.60;;;;;;5052594;28;20047;-67
2021/08/19 01:41:36;;;;;;;6.70;3.47;;;20.60;92.80;;;;;;5052949;28;20051;-67
2021/08/19 01:44:40;;;;;;;6.40;5.30;;;20.60;92.40;;;;;;5052762;28;20500;-67
2021/08/19 01:47:49;;;;;;;10.10;5.95;;;20.60;92.30;;;;;;5052528;28;20399;-67
2021/08/19 01:50:53;;;;;;;11.15;9.00;;;20.60;92.30;;;;;;5052758;28;20506;-66
2021/08/19 01:53:58;;;;;;;7.30;5.85;;;20.60;92.30;;;;;;5051661;28;20215;-67
2021/08/19 01:57:02;;;;;;;10.52;3.50;;;20.50;92.20;;;;;;5052633;28;20072;-67
2021/08/19 02:00:07;;;;;;;7.80;2.33;;;20.50;92.20;;;;;;5052260;28;20055;-67
2021/08/19 02:03:13;;;;;;;3.63;1.75;;;20.50;92.20;;;;;;5052124;28;20048;-67
2021/08/19 02:06:18;;;;;;;3.53;1.77;;;20.50;92.30;;;;;;5052342;28;20044;-67
2021/08/19 02:09:23;;;;;;;4.22;2.03;;;20.50;92.20;;;;;;5051507;28;20044;-67
2021/08/19 02:12:27;;;;;;;6.13;2.40;;;20.50;92.40;;;;;;5051300;28;20052;-67
2021/08/19 02:15:33;;;;;;;5.22;2.25;;;20.40;92.50;;;;;;5051661;28;20490;-67
2021/08/19 02:18:37;;;;;;;4.30;1.80;;;20.40;92.40;;;;;;5051829;28;20388;-67
2021/08/19 02:21:41;;;;;;;6.07;2.22;;;20.40;92.40;;;;;;5051664;28;20051;-67
2021/08/19 02:24:45;;;;;;;5.25;1.85;;;20.40;92.40;;;;;;5051743;28;20044;-67
2021/08/19 02:27:49;;;;;;;6.38;2.10;;;20.30;92.20;;;;;;5051481;28;20048;-67
2021/08/19 02:30:52;;;;;;;7.13;2.20;;;20.40;92.10;;;;;;5051914;28;20047;-67
2021/08/19 02:33:56;;;;;;;4.63;2.20;;;20.40;92.00;;;;;;5051578;28;20060;-67
2021/08/19 02:37:00;;;;;;;5.63;2.10;;;20.30;92.00;;;;;;5051612;28;20052;-66
2021/08/19 02:40:05;;;;;;;3.90;1.92;;;20.30;92.10;;;;;;5051154;28;20052;-67
2021/08/19 02:43:10;;;;;;;5.32;2.17;;;20.30;91.90;;;;;;5051421;28;20483;-66
2021/08/19 02:46:14;;;;;;;3.58;2.10;;;20.20;92.10;;;;;;5041134;28;20299;-66
2021/08/19 02:49:18;;;;;;;3.60;1.95;;;20.10;92.00;;;;;;5051395;28;20044;-66
2021/08/19 02:52:24;;;;;;;6.65;4.70;;;20.00;92.40;;;;;;5050518;28;20048;-66
2021/08/19 02:55:28;;;;;;;8.93;6.07;;;19.90;92.70;;;;;;5041853;28;20060;-66
2021/08/19 02:58:32;;;;;;;10.52;7.03;;;19.80;92.90;;;;;;5050338;28;20048;-66
2021/08/19 03:01:37;;;;;;;5.32;2.65;;;19.70;93.30;;;;;;5040951;28;20040;-66
2021/08/19 03:04:41;;;;;;;6.53;3.30;;;19.70;93.60;;;;;;5043641;28;20048;-66
2021/08/19 03:07:44;;;;;;;7.38;3.05;;;19.60;93.90;;;;;;5051076;28;20048;-66
2021/08/19 03:10:49;;;;;;;4.38;1.88;;;19.60;94.30;;;;;;5051079;28;20052;-66
2021/08/19 03:13:53;;;;;;;7.38;2.15;;;19.60;94.30;;;;;;5051282;28;20055;-66
2021/08/19 03:16:57;;;;;;;5.68;2.65;;;19.60;94.00;;;;;;5050729;28;20055;-66
2021/08/19 03:20:01;;;;;;;3.63;2.13;;;19.60;93.90;;;;;;5050584;28;20048;-66
2021/08/19 03:23:06;;;;;;;4.57;2.55;;;19.50;94.40;;;;;;5050628;28;20048;-66
2021/08/19 03:26:11;;;;;;;5.78;2.63;;;19.50;93.90;;;;;;5050704;28;20048;-66
2021/08/19 03:29:15;;;;;;;4.53;2.78;;;19.40;94.50;;;;;;5050200;28;20044;-66
2021/08/19 03:32:19;;;;;;;5.18;3.10;;;19.40;94.10;;;;;;5050593;28;20056;-66
2021/08/19 03:35:23;;;;;;;5.53;3.00;;;19.40;93.90;;;;;;5050368;28;20060;-66
2021/08/19 03:38:27;;;;;;;5.60;2.40;;;19.40;93.80;;;;;;5049998;28;20059;-66
2021/08/19 03:41:33;;;;;;;4.05;2.10;;;19.30;93.70;;;;;;5050458;28;20409;-66
2021/08/19 03:44:37;;;;;;;4.03;2.38;;;19.30;93.60;;;;;;5050523;28;20056;-66
2021/08/19 03:47:42;;;;;;;4.47;2.60;;;19.30;93.30;;;;;;5049523;28;20051;-66
2021/08/19 03:50:47;;;;;;;6.43;2.85;;;19.10;94.00;;;;;;5050205;28;20514;-66
2021/08/19 03:53:54;;;;;;;3.88;2.35;;;19.00;96.00;;;;;;5050394;28;20044;-66
2021/08/19 03:56:59;;;;;;;6.57;2.60;;;19.00;97.60;;;;;;5049813;28;20048;-66
2021/08/19 04:00:04;;;;;;;5.85;2.92;;;19.00;97.50;;;;;;5049666;28;20052;-66
2021/08/19 04:03:15;;;;;;;5.30;2.40;;;19.00;97.00;;;;;;5049959;28;20040;-66
2021/08/19 04:06:19;;;;;;;3.70;2.20;;;18.90;96.30;;;;;;5050062;28;20052;-66
2021/08/19 04:09:23;;;;;;;5.45;2.40;;;18.90;96.30;;;;;;5049290;28;20490;-66
2021/08/19 04:12:28;;;;;;;5.03;2.30;;;18.80;96.40;;;;;;5050188;28;20514;-67
2021/08/19 04:15:31;;;;;;;4.15;2.60;;;18.70;96.60;;;;;;5050031;28;20395;-66
2021/08/19 04:18:36;;;;;;;5.00;2.58;;;18.70;96.00;;;;;;5048410;28;20507;-66
2021/08/19 04:21:40;;;;;;;5.32;2.72;;;18.60;94.90;;;;;;5049958;28;20048;-66
2021/08/19 04:24:44;;;;;;;7.88;2.85;;;18.60;94.80;;;;;;5049778;28;20222;-66
2021/08/19 04:27:48;;;;;;;4.35;3.13;;;18.60;94.60;;;;;;5049358;28;20036;-66
2021/08/19 04:30:52;;;;;;;6.00;2.40;;;18.60;94.40;;;;;;5046904;28;20448;-66
2021/08/19 04:33:57;;;;;;;7.07;2.78;;;18.70;94.00;;;;;;5049552;28;20056;-66
2021/08/19 04:37:02;;;;;;;6.35;3.15;;;18.80;93.50;;;;;;5049786;28;20044;-66
2021/08/19 04:40:06;;;;;;;4.90;1.90;;;18.80;93.00;;;;;;5049424;28;20052;-66
2021/08/19 04:43:11;;;;;;;5.78;2.38;;;18.90;93.40;;;;;;5049798;28;20051;-66
2021/08/19 04:46:15;;;;;;;3.70;2.53;;;18.90;93.50;;;;;;5048537;28;20048;-66
2021/08/19 04:49:20;;;;;;;5.65;2.33;;;19.00;95.20;;;;;;5041783;28;20047;-66
2021/08/19 04:52:24;;;;;;;4.95;2.65;;;19.00;95.90;;;;;;5049693;28;20044;-67
2021/08/19 04:55:28;;;;;;;7.38;4.57;;;19.00;95.40;;;;;;5049803;28;20052;-67
2021/08/19 04:58:32;;;;;;;5.57;4.03;;;19.00;94.70;;;;;;5049195;28;20396;-67
2021/08/19 05:01:38;;;;;;;6.88;2.75;;;19.00;94.50;;;;;;5049243;28;20044;-67
2021/08/19 05:04:43;;;;;;;5.13;2.90;;;19.00;94.10;;;;;;5049621;28;20060;-67
2021/08/19 05:07:46;;;;;;;7.22;3.17;;;19.00;93.50;;;;;;5048012;28;20045;-66
2021/08/19 05:10:51;;;;;;;7.35;4.82;;;19.10;93.20;;;;;;5047056;28;20060;-66
2021/08/19 05:13:58;;;;;;;13.60;4.35;;;19.20;92.80;;;;;;5049397;28;20036;-66
2021/08/19 05:17:03;;;;;;;6.72;4.00;;;19.20;92.80;;;;;;5049687;28;20060;-66
2021/08/19 05:20:07;;;;;;;6.75;4.00;;;19.80;92.90;;;;;;5049204;28;20483;-66
2021/08/19 05:23:11;;;;;;;4.97;2.55;;;22.90;90.00;;;;;;5049302;28;20044;-66
2021/08/19 05:26:16;;;;;;;7.25;2.88;;;24.20;87.50;;;;;;5049228;28;20399;-66
2021/08/19 05:29:20;;;;;;;8.13;3.60;;;26.70;80.70;;;;;;5050799;28;20044;-67
2021/08/19 05:32:24;;;;;;;14.40;3.08;;;28.60;73.80;;;;;;5053278;28;20052;-67
2021/08/19 05:35:28;;;;;;;11.80;2.80;;;29.90;69.60;;;;;;5053217;28;20051;-66
2021/08/19 05:38:32;;;;;;;8.20;2.72;;;30.70;67.10;;;;;;5052742;28;20506;-66
2021/08/19 05:41:36;;;;;;;3.92;2.28;;;31.60;65.90;;;;;;5052752;28;20043;-66
2021/08/19 05:44:40;;;;;;;10.05;2.63;;;31.90;65.20;;;;;;5052821;28;20044;-66
2021/08/19 05:47:45;;;;;;;5.80;2.42;;;32.40;64.70;;;;;;5052595;28;20494;-66
2021/08/19 05:50:49;;;;;;;7.63;2.47;;;33.10;63.80;;;;;;5052148;28;20044;-66
2021/08/19 05:53:53;;;;;;;10.32;2.50;;;33.40;61.90;;;;;;5053171;28;20507;-67
2021/08/19 05:56:57;;;;;;;6.35;2.08;;;32.30;65.40;;;;;;5052617;28;20051;-67
2021/08/19 06:00:03;;;;;;;5.22;2.22;;;32.80;64.50;;;;;;5052094;28;20052;-67
2021/08/19 06:03:09;;;;;;;6.45;2.08;;;32.80;63.80;;;;;;5052512;28;20044;-66
2021/08/19 06:06:15;;;;;;;6.75;2.25;;;30.20;66.70;;;;;;5052540;28;20499;-66
2021/08/19 06:09:19;;;;;;;4.55;2.40;;;28.60;69.20;;;;;;5052158;28;20063;-66
2021/08/19 06:12:25;;;;;;;4.90;2.00;;;27.50;73.00;;;;;;5052670;28;20056;-65
2021/08/19 06:15:30;;;;;;;4.32;1.95;;;28.20;73.10;;;;;;5052522;28;20055;-66
2021/08/19 06:18:34;;;;;;;4.43;2.08;;;30.00;69.60;;;;;;5052472;28;20384;-66
2021/08/19 06:21:38;;;;;;;5.13;2.00;;;31.30;67.80;;;;;;5052322;28;20039;-66
2021/08/19 06:24:43;;;;;;;4.45;2.13;;;30.60;67.30;;;;;;5051469;28;20044;-66
2021/08/19 06:27:47;;;;;;;4.75;1.70;;;30.80;67.10;;;;;;5051714;28;20044;-66
2021/08/19 06:30:53;;;;;;;5.50;1.70;;;31.50;66.40;;;;;;5052312;28;20495;-66
2021/08/19 06:33:57;;;;;;;5.30;2.20;;;32.10;65.90;;;;;;5051817;28;20044;-66
2021/08/19 06:37:03;;;;;;;2.72;1.63;;;30.70;66.50;;;;;;5051850;28;20499;-66
2021/08/19 06:40:07;;;;;;;3.20;1.45;;;31.20;66.00;;;;;;5050893;28;20112;-66
2021/08/19 06:43:12;;;;;;;4.75;1.60;;;31.40;65.80;;;;;;5051806;28;20063;-66
2021/08/19 06:46:16;;;;;;;3.38;1.95;;;32.70;63.80;;;;;;5051945;28;20044;-66
2021/08/19 06:49:20;;;;;;;4.35;1.75;;;33.00;62.90;;;;;;5050970;28;20044;-66
2021/08/19 06:52:24;;;;;;;3.75;1.90;;;32.70;59.60;;;;;;5050823;28;20040;-66
2021/08/19 06:55:28;;;;;;;4.95;1.88;;;31.40;63.10;;;;;;5050673;28;20392;-66
2021/08/19 06:58:33;;;;;;;2.38;1.83;;;31.90;61.50;;;;;;5051160;28;20044;-66
2021/08/19 07:01:37;;;;;;;1.98;1.45;;;29.80;63.50;;;;;;5051390;28;20379;-66
2021/08/19 07:04:41;;;;;;;2.92;1.50;;;29.70;63.00;;;;;;5051444;28;20416;-66
2021/08/19 07:07:47;;;;;;;3.55;1.50;;;31.80;61.10;;;;;;5051270;28;20479;-66
2021/08/19 07:10:53;;;;;;;2.55;1.40;;;33.50;59.20;;;;;;5050846;28;20502;-66
2021/08/19 07:13:57;;;;;;;1.98;1.40;;;34.30;58.00;;;;;;5050312;28;20056;-66
2021/08/19 07:17:01;;;;;;;2.20;1.70;;;33.20;56.70;;;;;;5051065;28;20099;-66
2021/08/19 07:20:06;;;;;;;8.60;1.73;;;33.40;57.40;;;;;;5050460;28;20052;-66
2021/08/19 07:23:10;;;;;;;2.78;1.92;;;32.20;59.50;;;;;;5050841;28;20044;-66
2021/08/19 07:26:17;;;;;;;9.30;1.80;;;32.30;59.50;;;;;;5050838;28;20040;-66
2021/08/19 07:29:21;;;;;;;3.83;1.60;;;30.30;61.00;;;;;;5050442;28;20041;-66
2021/08/19 07:32:25;;;;;;;3.70;1.70;;;31.00;60.90;;;;;;5050653;28;20044;-66
2021/08/19 07:35:29;;;;;;;3.53;1.60;;;32.40;59.50;;;;;;5050763;28;20511;-66
2021/08/19 07:38:33;;;;;;;3.70;1.60;;;30.90;60.40;;;;;;5050083;28;20040;-65
2021/08/19 07:41:38;;;;;;;2.50;1.67;;;32.00;59.70;;;;;;5050554;28;20036;-66
2021/08/19 07:44:42;;;;;;;3.78;1.33;;;33.20;58.50;;;;;;5050331;28;20064;-66
2021/08/19 07:47:47;;;;;;;4.05;1.35;;;34.90;56.50;;;;;;5048901;28;20487;-66
2021/08/19 07:50:52;;;;;;;2.20;1.80;;;33.80;55.00;;;;;;5050575;28;20036;-66
2021/08/19 07:53:55;;;;;;;5.03;1.88;;;31.30;58.70;;;;;;5049927;28;20067;-66
2021/08/19 07:57:00;;;;;;;2.22;1.70;;;31.60;59.40;;;;;;5050280;28;20052;-66
2021/08/19 08:00:08;;;;;;;2.55;1.50;;;33.80;56.90;;;;;;5049811;28;20048;-66
2021/08/19 08:03:13;;;;;;;2.97;1.45;;;36.60;53.90;;;;;;5049866;28;20052;-66
2021/08/19 08:06:17;;;;;;;2.33;1.40;;;38.60;51.40;;;;;;5050086;28;20051;-66
2021/08/19 08:09:21;;;;;;;4.60;1.30;;;38.80;50.20;;;;;;5049513;28;20052;-67
2021/08/19 08:12:25;;;;;;;3.38;1.50;;;39.50;49.40;;;;;;5049702;28;20495;-66
2021/08/19 08:15:29;;;;;;;2.05;1.15;;;38.80;49.00;;;;;;5049798;28;20052;-67
2021/08/19 08:18:35;;;;;;;2.40;1.45;;;40.50;48.80;;;;;;5049420;28;20044;-67
2021/08/19 08:21:39;;;;;;;3.25;1.55;;;41.60;47.60;;;;;;5049486;28;20116;-67
2021/08/19 08:24:43;;;;;;;4.30;1.40;;;42.20;48.00;;;;;;5049720;28;20040;-67
2021/08/19 08:28:04;;;;;;;2.45;1.17;;;41.20;47.30;;;;;;5049406;28;20052;-67
2021/08/19 08:31:09;;;;;;;3.05;1.50;;;41.90;47.80;;;;;;5049443;28;20063;-66
2021/08/19 08:34:13;;;;;;;2.13;1.10;;;43.00;46.80;;;;;;5049690;28;20601;-65
2021/08/19 08:37:17;;;;;;;3.13;1.38;;;44.20;46.30;;;;;;5049635;28;20048;-65
2021/08/19 08:40:23;;;;;;;2.70;1.70;;;44.90;45.30;;;;;;5049721;28;20391;-65
2021/08/19 08:43:28;;;;;;;3.05;1.40;;;45.30;44.80;;;;;;5049911;28;20052;-65
2021/08/19 08:46:35;;;;;;;2.38;1.30;;;45.70;44.50;;;;;;5049729;28;20505;-65
2021/08/19 08:49:41;;;;;;;5.70;1.30;;;45.80;44.30;;;;;;5049098;28;20077;-65
2021/08/19 08:52:45;;;;;;;1.15;1.00;;;45.80;43.40;;;;;;5049528;28;20048;-65
2021/08/19 08:55:50;;;;;;;1.50;1.00;;;42.00;41.60;;;;;;5049110;28;20051;-67
2021/08/19 08:58:56;;;;;;;1.90;1.02;;;42.50;43.00;;;;;;5049272;28;20044;-65
2021/08/19 09:02:01;;;;;;;3.65;1.20;;;42.60;42.60;;;;;;5049426;28;20036;-65
2021/08/19 09:05:25;;;;;;;2.75;1.40;;;44.00;44.00;;;;;;5052751;28;20040;-65
2021/08/19 09:08:29;;;;;;;2.53;1.20;;;39.00;45.60;;;;;;5053174;28;20391;-66
2021/08/19 09:11:44;;;;;;;1.92;1.25;;;38.90;47.50;;;;;;5053379;28;20518;-66
2021/08/19 09:14:53;;;;;;;5.28;1.55;;;41.30;46.50;;;;;;5053635;28;20044;-67
2021/08/19 09:18:00;;;;;;;5.13;1.30;;;43.60;45.00;;;;;;5052960;28;20051;-65
2021/08/19 09:21:44;;;;;;;2.85;1.33;;;45.60;43.80;;;;;;5052454;28;20067;-65
2021/08/19 09:24:48;;;;;;;4.00;1.33;;;46.90;43.20;;;;;;5043463;28;20230;-65
2021/08/19 09:28:28;;;;;;;9.77;1.80;;;47.70;42.10;;;;;;5052983;28;20056;-65
2021/08/19 09:31:36;;;;;;;1.42;1.10;;;47.50;41.10;;;;;;5052812;28;20048;-65
2021/08/19 09:34:42;;;;;;;3.13;1.08;;;47.60;40.80;;;;;;5053041;28;20052;-66
2021/08/19 09:37:47;;;;;;;1.80;1.02;;;47.20;40.20;;;;;;5052463;28;20044;-65
2021/08/19 09:41:12;;;;;;;2.42;1.20;;;47.60;40.70;;;;;;5052770;28;20040;-65
2021/08/19 09:44:33;;;;;;;3.08;0.95;;;47.80;40.20;;;;;;5052973;28;20503;-65
2021/08/19 09:47:37;;;;;;;1.70;1.20;;;47.30;39.80;;;;;;5053056;28;20044;-66
2021/08/19 09:50:42;;;;;;;2.65;1.10;;;45.20;39.70;;;;;;5052520;28;20040;-66
2021/08/19 09:53:53;;;;;;;1.92;0.90;;;47.50;40.10;;;;;;5052000;28;20490;-65
2021/08/19 09:56:58;;;;;;;0.90;0.80;;;46.10;38.90;;;;;;5051751;28;20495;-65
2021/08/19 10:00:02;;;;;;;1.10;1.00;;;42.40;39.90;;;;;;5052007;28;20039;-65
2021/08/19 10:03:10;;;;;;;1.10;0.82;;;39.80;40.60;;;;;;5052055;28;20060;-65
2021/08/19 10:06:14;;;;;;;1.92;0.93;;;43.70;40.90;;;;;;5052740;28;20052;-65
2021/08/19 10:09:18;;;;;;;1.10;0.98;;;47.10;39.70;;;;;;5052252;28;20514;-65
2021/08/19 10:12:22;;;;;;;2.25;1.10;;;45.90;37.80;;;;;;5051953;28;20036;-66
2021/08/19 10:15:26;;;;;;;9.98;1.52;;;48.00;38.20;;;;;;5051624;28;20072;-65
2021/08/19 10:18:34;;;;;;;3.47;1.00;;;45.70;37.80;;;;;;5051649;28;20060;-66
2021/08/19 10:21:43;;;;;;;1.07;0.80;;;47.10;38.20;;;;;;5052150;28;20036;-67
2021/08/19 10:24:55;;;;;;;1.23;0.88;;;49.40;37.00;;;;;;5052147;28;20048;-66
2021/08/19 10:28:21;;;;;;;2.47;1.15;;;50.90;37.20;;;;;;5051623;28;20040;-66
2021/08/19 10:31:43;;;;;;;1.75;1.00;;;48.80;37.60;;;;;;5052197;28;20412;-66
2021/08/19 10:35:03;;;;;;;1.85;1.00;;;48.40;37.90;;;;;;5052142;28;20388;-66
2021/08/19 10:38:07;;;;;;;2.47;1.20;;;47.30;37.80;;;;;;5051347;28;20048;-65
2021/08/19 10:41:30;;;;;;;1.40;1.08;;;48.80;37.40;;;;;;5051591;28;20052;-66
2021/08/19 10:44:44;;;;;;;1.33;0.95;;;49.60;37.20;;;;;;5051608;28;20044;-66
2021/08/19 10:47:48;;;;;;;1.20;1.10;;;50.60;37.40;;;;;;5044850;28;20423;-65
2021/08/19 10:50:52;;;;;;;1.85;1.13;;;43.40;37.30;;;;;;5036733;28;20065;-66
2021/08/19 10:53:57;;;;;;;0.98;0.80;;;43.90;39.60;;;;;;5042062;28;20044;-65
2021/08/19 10:57:32;;;;;;;3.92;1.13;;;45.30;38.70;;;;;;5049568;28;20044;-66
2021/08/19 11:00:38;;;;;;;2.50;1.10;;;46.30;39.10;;;;;;5051504;28;20044;-66
2021/08/19 11:03:49;;;;;;;2.00;1.13;;;46.50;38.40;;;;;;5051015;28;20095;-66
2021/08/19 11:06:53;;;;;;;2.35;1.35;;;48.20;38.20;;;;;;5051537;28;20503;-66
2021/08/19 11:09:57;;;;;;;1.25;1.15;;;49.30;37.10;;;;;;5050667;28;20051;-65
2021/08/19 11:13:01;;;;;;;1.02;0.93;;;46.20;36.70;;;;;;5051067;28;20044;-66
2021/08/19 11:16:09;;;;;;;2.53;1.20;;;41.20;39.00;;;;;;5050880;28;20044;-67
2021/08/19 11:19:15;;;;;;;2.13;1.00;;;37.90;41.10;;;;;;5050754;28;20036;-67
2021/08/19 11:22:21;;;;;;;2.10;1.30;;;36.20;41.60;;;;;;5051317;28;20048;-68
2021/08/19 11:25:26;;;;;;;1.77;1.35;;;36.30;41.90;;;;;;5051267;28;20124;-68
2021/08/19 11:28:39;;;;;;;4.32;1.60;;;39.50;40.10;;;;;;5051127;28;20041;-67
2021/08/19 11:31:43;;;;;;;1.50;1.02;;;37.20;40.90;;;;;;5050828;28;20052;-67
2021/08/19 11:34:50;;;;;;;1.70;1.60;;;40.20;40.30;;;;;;5050628;28;20044;-67
2021/08/19 11:38:13;;;;;;;1.77;1.27;;;37.90;40.50;;;;;;5050359;28;20052;-67
2021/08/19 11:41:21;;;;;;;3.17;1.20;;;40.60;39.80;;;;;;5050570;28;20515;-66
2021/08/19 11:44:25;;;;;;;2.80;1.33;;;42.70;39.00;;;;;;5050519;28;20507;-68
2021/08/19 11:47:30;;;;;;;2.30;1.02;;;43.70;39.40;;;;;;5050690;28;20040;-66
2021/08/19 11:50:34;;;;;;;1.75;1.10;;;45.70;39.30;;;;;;5050549;28;20488;-65
2021/08/19 11:53:38;;;;;;;1.67;1.20;;;47.30;38.10;;;;;;5050582;28;20044;-65
2021/08/19 11:56:45;;;;;;;1.92;1.30;;;47.00;37.50;;;;;;5050745;28;20048;-65
2021/08/19 12:00:07;;;;;;;1.60;1.30;;;43.70;37.50;;;;;;5049855;28;20052;-65
2021/08/19 12:03:21;;;;;;;2.22;1.23;;;46.40;37.90;;;;;;5050160;28;20507;-65
2021/08/19 12:06:27;;;;;;;1.38;1.20;;;47.40;37.60;;;;;;5049559;28;20372;-65
2021/08/19 12:09:42;;;;;;;3.42;1.40;;;47.10;36.90;;;;;;5049344;28;20051;-67
2021/08/19 12:12:47;;;;;;;1.70;1.50;;;48.00;37.00;;;;;;5026201;28;20048;-67
2021/08/19 12:15:52;;;;;;;1.60;1.30;;;44.00;36.90;;;;;;5050200;28;20040;-68
2021/08/19 12:19:15;;;;;;;1.52;1.30;;;42.60;38.50;;;;;;5049429;28;20036;-67
2021/08/19 12:22:24;;;;;;;2.50;1.25;;;41.60;38.90;;;;;;5049995;28;20048;-68
2021/08/19 12:25:28;;;;;;;2.33;1.17;;;44.80;39.20;;;;;;5049570;28;20503;-65
2021/08/19 12:28:33;;;;;;;2.40;1.38;;;46.80;38.30;;;;;;5049664;28;20060;-65
2021/08/19 12:32:03;;;;;;;1.48;1.30;;;47.50;37.90;;;;;;5049466;28;20531;-66
2021/08/19 12:35:12;;;;;;;1.98;1.42;;;48.70;37.00;;;;;;5049612;28;20048;-68
2021/08/19 12:38:23;;;;;;;8.27;1.70;;;47.60;37.80;;;;;;5049158;28;20502;-65
2021/08/19 12:41:28;;;;;;;3.17;1.58;;;46.90;38.40;;;;;;5049490;28;20051;-67
2021/08/19 12:44:35;;;;;;;1.40;1.20;;;46.20;38.00;;;;;;5048920;28;20044;-65
2021/08/19 12:47:41;;;;;;;5.28;1.65;;;47.20;38.30;;;;;;5049827;28;20048;-67
2021/08/19 12:50:45;;;;;;;3.08;1.38;;;45.40;38.70;;;;;;5048694;28;20048;-64
2021/08/19 12:54:08;;;;;;;2.00;1.50;;;43.40;39.20;;;;;;5049605;28;20048;-67
2021/08/19 12:57:27;;;;;;;5.32;1.60;;;39.60;40.00;;;;;;5048929;28;20044;-67
2021/08/19 13:00:33;;;;;;;2.13;1.45;;;39.10;41.30;;;;;;5049399;28;20048;-67
2021/08/19 13:03:38;;;;;;;2.35;1.40;;;39.80;42.20;;;;;;5049944;28;20048;-67
2021/08/19 13:06:42;;;;;;;3.55;1.70;;;41.70;40.70;;;;;;5048943;28;20040;-68
2021/08/19 13:09:48;;;;;;;1.77;1.40;;;42.90;40.70;;;;;;5049061;28;20044;-67
2021/08/19 13:12:54;;;;;;;2.20;1.38;;;43.30;39.90;;;;;;5049652;28;20502;-66
2021/08/19 13:15:58;;;;;;;5.60;1.60;;;42.40;39.70;;;;;;5049584;28;20044;-67
2021/08/19 13:19:03;;;;;;;2.85;1.80;;;38.60;41.20;;;;;;5048842;28;20056;-66
2021/08/19 13:22:08;;;;;;;3.10;1.80;;;37.00;41.90;;;;;;5048600;28;20445;-65
2021/08/19 13:25:12;;;;;;;1.75;1.60;;;37.50;43.10;;;;;;5049536;28;20051;-66
2021/08/19 13:28:17;;;;;;;2.38;1.65;;;38.80;42.20;;;;;;5049001;28;20040;-65
2021/08/19 13:31:21;;;;;;;5.43;1.50;;;39.50;41.30;;;;;;5049428;28;20048;-67
2021/08/19 13:34:25;;;;;;;3.38;1.60;;;38.50;42.00;;;;;;5049475;28;20048;-66
2021/08/19 13:37:29;;;;;;;2.88;1.80;;;37.90;43.30;;;;;;5049448;28;20048;-67
2021/08/19 13:40:34;;;;;;;2.40;1.60;;;38.00;41.50;;;;;;5049416;28;20052;-66
2021/08/19 13:43:38;;;;;;;1.85;1.58;;;39.10;41.80;;;;;;5049338;28;20055;-66
2021/08/19 13:46:43;;;;;;;3.65;1.70;;;39.80;41.70;;;;;;5049434;28;20374;-65
2021/08/19 13:49:47;;;;;;;3.80;1.70;;;39.30;41.70;;;;;;5049156;28;20347;-66
2021/08/19 13:52:52;;;;;;;1.70;1.40;;;38.90;41.20;;;;;;5053048;28;20251;-65
2021/08/19 13:55:55;;;;;;;2.45;1.73;;;38.70;41.60;;;;;;5052882;28;20052;-66
2021/08/19 13:59:00;;;;;;;3.47;2.00;;;38.30;41.80;;;;;;5052216;28;20044;-65
2021/08/19 14:02:06;;;;;;;3.85;1.65;;;37.50;41.80;;;;;;5052617;28;20044;-67
2021/08/19 14:05:12;;;;;;;2.20;1.58;;;37.70;42.90;;;;;;5052591;28;20411;-66
2021/08/19 14:08:17;;;;;;;2.45;1.20;;;37.90;43.10;;;;;;5052318;28;20040;-66
2021/08/19 14:11:21;;;;;;;2.83;1.80;;;38.10;42.70;;;;;;5051601;28;20499;-66
2021/08/19 14:14:25;;;;;;;4.32;1.67;;;36.50;42.40;;;;;;5052611;28;20048;-66
2021/08/19 14:17:30;;;;;;;4.55;4.15;;;36.90;44.10;;;;;;5052225;28;20043;-67
2021/08/19 14:20:35;;;;;;;6.30;3.65;;;37.50;43.30;;;;;;5052363;28;20048;-66
2021/08/19 14:23:40;;;;;;;3.88;1.80;;;38.00;42.40;;;;;;5051888;28;20044;-65
2021/08/19 14:26:45;;;;;;;17.58;3.20;;;38.40;42.30;;;;;;5051548;28;20046;-65
2021/08/19 14:29:50;;;;;;;4.82;1.73;;;37.10;43.20;;;;;;5050706;28;20052;-66
2021/08/19 14:32:54;;;;;;;4.18;1.63;;;37.00;43.40;;;;;;5051043;28;20399;-66
2021/08/19 14:36:00;;;;;;;5.10;1.98;;;36.40;44.40;;;;;;5052015;28;20048;-66
2021/08/19 14:39:06;;;;;;;3.20;1.70;;;36.60;44.40;;;;;;5051335;28;20491;-66
2021/08/19 14:42:11;;;;;;;2.85;1.60;;;36.60;44.30;;;;;;5051373;28;20048;-65
2021/08/19 14:45:18;;;;;;;2.90;1.95;;;36.30;43.90;;;;;;5051431;28;20044;-66
2021/08/19 14:48:25;;;;;;;3.80;1.95;;;36.30;44.40;;;;;;5050436;28;20083;-66
2021/08/19 14:51:29;;;;;;;4.97;2.00;;;36.30;44.50;;;;;;5050904;28;20044;-65
2021/08/19 14:54:34;;;;;;;2.70;1.80;;;36.30;44.30;;;;;;5051209;28;20051;-67
2021/08/19 14:57:38;;;;;;;2.15;1.65;;;35.20;44.70;;;;;;5051626;28;20503;-66
2021/08/19 15:00:43;;;;;;;4.75;1.80;;;35.50;44.70;;;;;;5050450;28;20051;-66
2021/08/19 15:03:47;;;;;;;5.10;2.08;;;35.60;44.60;;;;;;5051295;28;20044;-66
2021/08/19 15:06:53;;;;;;;5.82;2.10;;;35.70;45.00;;;;;;5050581;28;20609;-66
2021/08/19 15:09:58;;;;;;;5.15;1.75;;;35.60;44.40;;;;;;5050531;28;20051;-65
2021/08/19 15:13:03;;;;;;;3.13;1.83;;;35.40;44.90;;;;;;5051697;28;20040;-65
2021/08/19 15:16:10;;;;;;;4.15;2.22;;;35.50;45.10;;;;;;5050677;28;20487;-68
2021/08/19 15:19:13;;;;;;;2.75;1.90;;;35.40;45.10;;;;;;5050963;28;20052;-66
2021/08/19 15:22:18;;;;;;;3.97;2.15;;;35.50;45.30;;;;;;5050964;28;20064;-66
2021/08/19 15:25:22;;;;;;;5.03;2.17;;;35.60;45.00;;;;;;5050577;28;20048;-65
2021/08/19 15:28:27;;;;;;;8.00;2.10;;;34.50;45.50;;;;;;5050581;28;20494;-66
2021/08/19 15:31:36;;;;;;;4.57;2.13;;;34.70;45.60;;;;;;5050947;28;20040;-66
2021/08/19 15:34:44;;;;;;;4.28;1.92;;;34.40;45.90;;;;;;5050687;28;20044;-66
2021/08/19 15:37:49;;;;;;;2.40;1.80;;;34.50;45.60;;;;;;5050397;28;20044;-65
2021/08/19 15:40:53;;;;;;;6.82;1.95;;;34.60;45.90;;;;;;5049513;28;20052;-66
2021/08/19 15:43:57;;;;;;;4.30;2.15;;;34.40;45.40;;;;;;5050679;28;20052;-66
2021/08/19 15:47:04;;;;;;;3.40;2.03;;;34.60;45.80;;;;;;5050195;28;20040;-67
2021/08/19 15:50:09;;;;;;;2.83;1.98;;;34.60;46.00;;;;;;5049744;28;20040;-66
2021/08/19 15:53:14;;;;;;;7.40;2.10;;;34.40;45.60;;;;;;5049933;28;20048;-66
2021/08/19 15:56:21;;;;;;;2.85;1.77;;;34.60;46.20;;;;;;5050169;28;20056;-66
2021/08/19 15:59:26;;;;;;;4.80;1.55;;;34.50;46.50;;;;;;5050090;28;20055;-66
2021/08/19 16:02:32;;;;;;;8.25;1.90;;;34.40;46.50;;;;;;5050117;28;20048;-66
2021/08/19 16:05:37;;;;;;;3.85;2.00;;;34.10;46.80;;;;;;5050406;28;20396;-66
2021/08/19 16:08:42;;;;;;;3.35;1.92;;;34.00;47.10;;;;;;5049936;28;20503;-66